sensor_id;sensor_type;location;lat;lon;timestamp;P1;durP1;ratioP1;P2;durP2;ratioP2
62796;SDS011;48839;48.546;-4.178;2023-08-01T00:01:58;8.13;;;2.58;;
62796;SDS011;48839;48.546;-4.178;2023-08-01T00:04:24;17.17;;;3.40;;
62796;SDS011;48839;48.546;-4.178;2023-08-01T00:06:50;10.70;;;3.60;;
62796;SDS011;48839;48.546;-4.178;2023-08-01T00:09:16;18.60;;;4.10;;
62796;SDS011;48839;48.546;-4.178;2023-08-01T00:11:42;9.55;;;2.90;;
62796;SDS011;48839;48.546;-4.178;2023-08-01T00:14:08;8.13;;;2.83;;
62796;SDS011;48839;48.546;-4.178;2023-08-01T00:16:34;13.23;;;3.35;;
62796;SDS011;48839;48.546;-4.178;2023-08-01T00:19:01;10.93;;;2.80;;
62796;SDS011;48839;48.546;-4.178;2023-08-01T00:21:27;13.25;;;3.13;;
62796;SDS011;48839;48.546;-4.178;2023-08-01T00:23:55;17.85;;;5.13;;
62796;SDS011;48839;48.546;-4.178;2023-08-01T00:26:21;14.48;;;3.35;;
62796;SDS011;48839;48.546;-4.178;2023-08-01T00:28:47;12.60;;;3.65;;
62796;SDS011;48839;48.546;-4.178;2023-08-01T00:31:13;11.13;;;3.67;;
62796;SDS011;48839;48.546;-4.178;2023-08-01T00:33:39;8.32;;;3.50;;
62796;SDS011;48839;48.546;-4.178;2023-08-01T00:36:05;7.10;;;2.92;;
62796;SDS011;48839;48.546;-4.178;2023-08-01T00:38:36;14.40;;;3.83;;
62796;SDS011;48839;48.546;-4.178;2023-08-01T00:41:02;19.98;;;4.28;;
62796;SDS011;48839;48.546;-4.178;2023-08-01T00:43:28;12.45;;;3.83;;
62796;SDS011;48839;48.546;-4.178;2023-08-01T00:45:56;12.85;;;3.83;;
62796;SDS011;48839;48.546;-4.178;2023-08-01T00:48:25;12.02;;;3.30;;
62796;SDS011;48839;48.546;-4.178;2023-08-01T00:50:51;19.45;;;4.47;;
62796;SDS011;48839;48.546;-4.178;2023-08-01T00:53:17;10.98;;;3.88;;
62796;SDS011;48839;48.546;-4.178;2023-08-01T00:55:44;8.73;;;3.65;;
62796;SDS011;48839;48.546;-4.178;2023-08-01T00:58:10;12.73;;;4.03;;
62796;SDS011;48839;48.546;-4.178;2023-08-01T01:00:36;14.43;;;4.53;;
62796;SDS011;48839;48.546;-4.178;2023-08-01T01:03:04;10.18;;;3.05;;
62796;SDS011;48839;48.546;-4.178;2023-08-01T01:05:35;23.25;;;4.40;;
62796;SDS011;48839;48.546;-4.178;2023-08-01T01:08:02;16.00;;;3.95;;
62796;SDS011;48839;48.546;-4.178;2023-08-01T01:10:29;11.57;;;3.85;;
62796;SDS011;48839;48.546;-4.178;2023-08-01T01:12:55;13.63;;;4.00;;
62796;SDS011;48839;48.546;-4.178;2023-08-01T01:15:21;13.23;;;4.10;;
62796;SDS011;48839;48.546;-4.178;2023-08-01T01:17:47;16.85;;;4.47;;
62796;SDS011;48839;48.546;-4.178;2023-08-01T01:20:13;15.70;;;4.18;;
62796;SDS011;48839;48.546;-4.178;2023-08-01T01:22:39;13.15;;;3.92;;
62796;SDS011;48839;48.546;-4.178;2023-08-01T01:25:07;9.70;;;3.72;;
62796;SDS011;48839;48.546;-4.178;2023-08-01T01:27:34;12.90;;;4.53;;
62796;SDS011;48839;48.546;-4.178;2023-08-01T01:30:01;18.17;;;4.13;;
62796;SDS011;48839;48.546;-4.178;2023-08-01T01:32:29;15.18;;;4.15;;
62796;SDS011;48839;48.546;-4.178;2023-08-01T01:34:55;13.85;;;3.65;;
62796;SDS011;48839;48.546;-4.178;2023-08-01T01:37:21;18.33;;;4.18;;
62796;SDS011;48839;48.546;-4.178;2023-08-01T01:39:47;11.95;;;3.72;;
62796;SDS011;48839;48.546;-4.178;2023-08-01T01:42:13;8.73;;;3.50;;
62796;SDS011;48839;48.546;-4.178;2023-08-01T01:44:39;15.52;;;3.90;;
62796;SDS011;48839;48.546;-4.178;2023-08-01T01:47:05;13.18;;;3.50;;
62796;SDS011;48839;48.546;-4.178;2023-08-01T01:49:31;9.63;;;3.97;;
62796;SDS011;48839;48.546;-4.178;2023-08-01T01:51:57;13.05;;;4.10;;
62796;SDS011;48839;48.546;-4.178;2023-08-01T01:54:23;13.43;;;4.18;;
62796;SDS011;48839;48.546;-4.178;2023-08-01T01:56:49;15.77;;;4.65;;
62796;SDS011;48839;48.546;-4.178;2023-08-01T01:59:15;15.35;;;4.45;;
62796;SDS011;48839;48.546;-4.178;2023-08-01T02:01:41;16.15;;;4.70;;
62796;SDS011;48839;48.546;-4.178;2023-08-01T02:04:07;11.23;;;3.92;;
62796;SDS011;48839;48.546;-4.178;2023-08-01T02:06:33;16.05;;;4.50;;
62796;SDS011;48839;48.546;-4.178;2023-08-01T02:09:00;16.27;;;4.30;;
62796;SDS011;48839;48.546;-4.178;2023-08-01T02:11:26;19.25;;;5.05;;
62796;SDS011;48839;48.546;-4.178;2023-08-01T02:13:52;19.50;;;4.25;;
62796;SDS011;48839;48.546;-4.178;2023-08-01T02:16:19;11.05;;;3.70;;
62796;SDS011;48839;48.546;-4.178;2023-08-01T02:18:45;12.18;;;3.35;;
62796;SDS011;48839;48.546;-4.178;2023-08-01T02:21:11;15.88;;;4.75;;
62796;SDS011;48839;48.546;-4.178;2023-08-01T02:23:37;9.48;;;3.63;;
62796;SDS011;48839;48.546;-4.178;2023-08-01T02:26:03;11.80;;;4.55;;
62796;SDS011;48839;48.546;-4.178;2023-08-01T02:28:29;16.05;;;4.57;;
62796;SDS011;48839;48.546;-4.178;2023-08-01T02:30:55;12.40;;;4.53;;
62796;SDS011;48839;48.546;-4.178;2023-08-01T02:33:21;10.35;;;3.92;;
62796;SDS011;48839;48.546;-4.178;2023-08-01T02:35:47;11.80;;;3.80;;
62796;SDS011;48839;48.546;-4.178;2023-08-01T02:38:13;9.73;;;3.88;;
62796;SDS011;48839;48.546;-4.178;2023-08-01T02:40:40;12.02;;;4.10;;
62796;SDS011;48839;48.546;-4.178;2023-08-01T02:43:06;13.50;;;4.40;;
62796;SDS011;48839;48.546;-4.178;2023-08-01T02:45:31;17.90;;;4.63;;
62796;SDS011;48839;48.546;-4.178;2023-08-01T02:47:57;11.50;;;4.20;;
62796;SDS011;48839;48.546;-4.178;2023-08-01T02:50:23;13.20;;;4.20;;
62796;SDS011;48839;48.546;-4.178;2023-08-01T02:52:49;16.17;;;4.30;;
62796;SDS011;48839;48.546;-4.178;2023-08-01T02:55:15;10.77;;;3.78;;
62796;SDS011;48839;48.546;-4.178;2023-08-01T02:57:41;12.35;;;4.63;;
62796;SDS011;48839;48.546;-4.178;2023-08-01T03:00:08;20.38;;;4.85;;
62796;SDS011;48839;48.546;-4.178;2023-08-01T03:02:36;17.20;;;4.45;;
62796;SDS011;48839;48.546;-4.178;2023-08-01T03:05:03;19.13;;;4.18;;
62796;SDS011;48839;48.546;-4.178;2023-08-01T03:07:30;21.42;;;5.47;;
62796;SDS011;48839;48.546;-4.178;2023-08-01T03:09:56;11.43;;;4.68;;
62796;SDS011;48839;48.546;-4.178;2023-08-01T03:12:22;15.20;;;5.30;;
62796;SDS011;48839;48.546;-4.178;2023-08-01T03:14:48;15.75;;;4.20;;
62796;SDS011;48839;48.546;-4.178;2023-08-01T03:17:14;12.98;;;4.05;;
62796;SDS011;48839;48.546;-4.178;2023-08-01T03:19:40;9.98;;;4.25;;
62796;SDS011;48839;48.546;-4.178;2023-08-01T03:22:06;18.60;;;5.20;;
62796;SDS011;48839;48.546;-4.178;2023-08-01T03:24:32;17.20;;;4.20;;
62796;SDS011;48839;48.546;-4.178;2023-08-01T03:26:58;9.50;;;3.95;;
62796;SDS011;48839;48.546;-4.178;2023-08-01T03:29:24;14.52;;;4.72;;
62796;SDS011;48839;48.546;-4.178;2023-08-01T03:31:50;13.63;;;4.05;;
62796;SDS011;48839;48.546;-4.178;2023-08-01T03:34:16;12.57;;;4.65;;
62796;SDS011;48839;48.546;-4.178;2023-08-01T03:36:42;14.00;;;3.97;;
62796;SDS011;48839;48.546;-4.178;2023-08-01T03:39:08;12.38;;;4.53;;
62796;SDS011;48839;48.546;-4.178;2023-08-01T03:41:35;10.98;;;4.38;;
62796;SDS011;48839;48.546;-4.178;2023-08-01T03:44:02;7.57;;;3.60;;
62796;SDS011;48839;48.546;-4.178;2023-08-01T03:46:28;13.32;;;4.75;;
62796;SDS011;48839;48.546;-4.178;2023-08-01T03:48:54;11.45;;;4.97;;
62796;SDS011;48839;48.546;-4.178;2023-08-01T03:51:20;12.73;;;4.07;;
62796;SDS011;48839;48.546;-4.178;2023-08-01T03:53:46;20.33;;;4.50;;
62796;SDS011;48839;48.546;-4.178;2023-08-01T03:56:12;13.52;;;4.10;;
62796;SDS011;48839;48.546;-4.178;2023-08-01T03:58:38;17.98;;;4.70;;
62796;SDS011;48839;48.546;-4.178;2023-08-01T04:01:05;15.68;;;5.15;;
62796;SDS011;48839;48.546;-4.178;2023-08-01T04:03:31;14.50;;;4.05;;
62796;SDS011;48839;48.546;-4.178;2023-08-01T04:05:57;18.85;;;4.75;;
62796;SDS011;48839;48.546;-4.178;2023-08-01T04:08:23;13.48;;;3.83;;
62796;SDS011;48839;48.546;-4.178;2023-08-01T04:10:49;16.40;;;4.70;;
62796;SDS011;48839;48.546;-4.178;2023-08-01T04:13:15;16.40;;;5.47;;
62796;SDS011;48839;48.546;-4.178;2023-08-01T04:15:41;14.07;;;5.00;;
62796;SDS011;48839;48.546;-4.178;2023-08-01T04:18:07;16.35;;;4.88;;
62796;SDS011;48839;48.546;-4.178;2023-08-01T04:20:34;12.77;;;5.13;;
62796;SDS011;48839;48.546;-4.178;2023-08-01T04:23:00;13.07;;;4.35;;
62796;SDS011;48839;48.546;-4.178;2023-08-01T04:25:26;12.30;;;4.43;;
62796;SDS011;48839;48.546;-4.178;2023-08-01T04:27:53;12.63;;;4.18;;
62796;SDS011;48839;48.546;-4.178;2023-08-01T04:30:19;10.48;;;4.45;;
62796;SDS011;48839;48.546;-4.178;2023-08-01T04:32:45;13.02;;;4.22;;
62796;SDS011;48839;48.546;-4.178;2023-08-01T04:35:11;14.02;;;5.03;;
62796;SDS011;48839;48.546;-4.178;2023-08-01T04:37:37;10.00;;;3.92;;
62796;SDS011;48839;48.546;-4.178;2023-08-01T04:40:03;14.05;;;4.20;;
62796;SDS011;48839;48.546;-4.178;2023-08-01T04:42:29;12.93;;;4.55;;
62796;SDS011;48839;48.546;-4.178;2023-08-01T04:44:55;12.90;;;5.00;;
62796;SDS011;48839;48.546;-4.178;2023-08-01T04:47:21;13.73;;;5.28;;
62796;SDS011;48839;48.546;-4.178;2023-08-01T04:49:47;16.35;;;4.45;;
62796;SDS011;48839;48.546;-4.178;2023-08-01T04:52:13;14.90;;;4.80;;
62796;SDS011;48839;48.546;-4.178;2023-08-01T04:54:39;17.95;;;4.65;;
62796;SDS011;48839;48.546;-4.178;2023-08-01T04:57:05;22.02;;;4.85;;
62796;SDS011;48839;48.546;-4.178;2023-08-01T04:59:32;16.85;;;4.35;;
62796;SDS011;48839;48.546;-4.178;2023-08-01T05:01:58;14.75;;;4.55;;
62796;SDS011;48839;48.546;-4.178;2023-08-01T05:04:24;11.80;;;4.32;;
62796;SDS011;48839;48.546;-4.178;2023-08-01T05:06:50;18.63;;;4.93;;
62796;SDS011;48839;48.546;-4.178;2023-08-01T05:09:16;13.02;;;4.30;;
62796;SDS011;48839;48.546;-4.178;2023-08-01T05:11:42;11.85;;;4.55;;
62796;SDS011;48839;48.546;-4.178;2023-08-01T05:14:08;11.50;;;5.22;;
62796;SDS011;48839;48.546;-4.178;2023-08-01T05:16:34;14.18;;;5.30;;
62796;SDS011;48839;48.546;-4.178;2023-08-01T05:19:00;19.70;;;4.63;;
62796;SDS011;48839;48.546;-4.178;2023-08-01T05:21:26;16.42;;;5.18;;
62796;SDS011;48839;48.546;-4.178;2023-08-01T05:23:52;8.55;;;3.88;;
62796;SDS011;48839;48.546;-4.178;2023-08-01T05:26:18;15.18;;;5.30;;
62796;SDS011;48839;48.546;-4.178;2023-08-01T05:28:44;12.32;;;5.07;;
62796;SDS011;48839;48.546;-4.178;2023-08-01T05:31:10;18.27;;;4.45;;
62796;SDS011;48839;48.546;-4.178;2023-08-01T05:33:36;13.07;;;4.47;;
62796;SDS011;48839;48.546;-4.178;2023-08-01T05:36:02;14.70;;;4.93;;
62796;SDS011;48839;48.546;-4.178;2023-08-01T05:38:28;12.63;;;4.43;;
62796;SDS011;48839;48.546;-4.178;2023-08-01T05:40:54;15.23;;;4.95;;
62796;SDS011;48839;48.546;-4.178;2023-08-01T05:43:20;16.42;;;5.15;;
62796;SDS011;48839;48.546;-4.178;2023-08-01T05:45:46;19.63;;;5.95;;
62796;SDS011;48839;48.546;-4.178;2023-08-01T05:48:12;12.07;;;4.55;;
62796;SDS011;48839;48.546;-4.178;2023-08-01T05:50:38;15.48;;;4.45;;
62796;SDS011;48839;48.546;-4.178;2023-08-01T05:53:04;19.15;;;5.10;;
62796;SDS011;48839;48.546;-4.178;2023-08-01T05:55:31;19.58;;;6.28;;
62796;SDS011;48839;48.546;-4.178;2023-08-01T05:57:57;14.32;;;4.38;;
62796;SDS011;48839;48.546;-4.178;2023-08-01T06:00:23;12.63;;;5.05;;
62796;SDS011;48839;48.546;-4.178;2023-08-01T06:02:49;10.85;;;4.95;;
62796;SDS011;48839;48.546;-4.178;2023-08-01T06:05:15;14.52;;;4.70;;
62796;SDS011;48839;48.546;-4.178;2023-08-01T06:07:41;16.55;;;5.40;;
62796;SDS011;48839;48.546;-4.178;2023-08-01T06:10:07;13.40;;;4.47;;
62796;SDS011;48839;48.546;-4.178;2023-08-01T06:12:33;10.98;;;4.88;;
62796;SDS011;48839;48.546;-4.178;2023-08-01T06:14:59;20.35;;;5.18;;
62796;SDS011;48839;48.546;-4.178;2023-08-01T06:17:25;12.00;;;4.50;;
62796;SDS011;48839;48.546;-4.178;2023-08-01T06:19:51;15.60;;;5.10;;
62796;SDS011;48839;48.546;-4.178;2023-08-01T06:22:19;11.15;;;4.68;;
62796;SDS011;48839;48.546;-4.178;2023-08-01T06:24:45;12.52;;;5.45;;
62796;SDS011;48839;48.546;-4.178;2023-08-01T06:27:11;16.83;;;6.03;;
62796;SDS011;48839;48.546;-4.178;2023-08-01T06:29:40;18.00;;;4.93;;
62796;SDS011;48839;48.546;-4.178;2023-08-01T06:32:06;13.23;;;4.38;;
62796;SDS011;48839;48.546;-4.178;2023-08-01T06:34:32;27.10;;;6.43;;
62796;SDS011;48839;48.546;-4.178;2023-08-01T06:36:58;14.15;;;5.78;;
62796;SDS011;48839;48.546;-4.178;2023-08-01T06:39:24;10.98;;;5.32;;
62796;SDS011;48839;48.546;-4.178;2023-08-01T06:41:50;14.07;;;4.90;;
62796;SDS011;48839;48.546;-4.178;2023-08-01T06:44:16;16.95;;;5.50;;
62796;SDS011;48839;48.546;-4.178;2023-08-01T06:46:42;18.80;;;6.38;;
62796;SDS011;48839;48.546;-4.178;2023-08-01T06:49:08;20.20;;;6.35;;
62796;SDS011;48839;48.546;-4.178;2023-08-01T06:51:34;15.10;;;5.03;;
62796;SDS011;48839;48.546;-4.178;2023-08-01T06:54:00;12.90;;;4.13;;
62796;SDS011;48839;48.546;-4.178;2023-08-01T06:56:26;14.13;;;4.72;;
62796;SDS011;48839;48.546;-4.178;2023-08-01T06:58:52;13.98;;;4.45;;
62796;SDS011;48839;48.546;-4.178;2023-08-01T07:01:18;11.82;;;4.53;;
62796;SDS011;48839;48.546;-4.178;2023-08-01T07:03:44;15.80;;;4.10;;
62796;SDS011;48839;48.546;-4.178;2023-08-01T07:06:10;10.90;;;4.32;;
62796;SDS011;48839;48.546;-4.178;2023-08-01T07:08:36;17.60;;;4.72;;
62796;SDS011;48839;48.546;-4.178;2023-08-01T07:11:02;14.23;;;4.60;;
62796;SDS011;48839;48.546;-4.178;2023-08-01T07:13:28;12.05;;;4.15;;
62796;SDS011;48839;48.546;-4.178;2023-08-01T07:15:54;10.27;;;3.50;;
62796;SDS011;48839;48.546;-4.178;2023-08-01T07:18:20;13.27;;;4.20;;
62796;SDS011;48839;48.546;-4.178;2023-08-01T07:20:46;16.58;;;5.00;;
62796;SDS011;48839;48.546;-4.178;2023-08-01T07:23:12;13.88;;;4.07;;
62796;SDS011;48839;48.546;-4.178;2023-08-01T07:25:38;13.40;;;4.00;;
62796;SDS011;48839;48.546;-4.178;2023-08-01T07:28:04;15.80;;;5.53;;
62796;SDS011;48839;48.546;-4.178;2023-08-01T07:30:30;11.07;;;4.53;;
62796;SDS011;48839;48.546;-4.178;2023-08-01T07:32:56;12.80;;;4.55;;
62796;SDS011;48839;48.546;-4.178;2023-08-01T07:35:22;12.73;;;4.82;;
62796;SDS011;48839;48.546;-4.178;2023-08-01T07:37:48;10.43;;;4.15;;
62796;SDS011;48839;48.546;-4.178;2023-08-01T07:40:14;10.43;;;3.90;;
62796;SDS011;48839;48.546;-4.178;2023-08-01T07:42:41;8.77;;;3.72;;
62796;SDS011;48839;48.546;-4.178;2023-08-01T07:45:07;17.75;;;5.60;;
62796;SDS011;48839;48.546;-4.178;2023-08-01T07:47:33;10.82;;;3.55;;
62796;SDS011;48839;48.546;-4.178;2023-08-01T07:49:59;13.02;;;4.45;;
62796;SDS011;48839;48.546;-4.178;2023-08-01T07:52:25;10.82;;;4.90;;
62796;SDS011;48839;48.546;-4.178;2023-08-01T07:54:51;10.90;;;4.07;;
62796;SDS011;48839;48.546;-4.178;2023-08-01T07:57:18;7.57;;;3.03;;
62796;SDS011;48839;48.546;-4.178;2023-08-01T07:59:44;14.35;;;4.05;;
62796;SDS011;48839;48.546;-4.178;2023-08-01T08:02:10;9.60;;;4.18;;
62796;SDS011;48839;48.546;-4.178;2023-08-01T08:04:36;10.65;;;3.88;;
62796;SDS011;48839;48.546;-4.178;2023-08-01T08:07:02;10.30;;;3.22;;
62796;SDS011;48839;48.546;-4.178;2023-08-01T08:09:28;10.20;;;3.63;;
62796;SDS011;48839;48.546;-4.178;2023-08-01T08:11:55;15.02;;;3.67;;
62796;SDS011;48839;48.546;-4.178;2023-08-01T08:14:22;9.77;;;3.67;;
62796;SDS011;48839;48.546;-4.178;2023-08-01T08:16:49;14.15;;;3.60;;
62796;SDS011;48839;48.546;-4.178;2023-08-01T08:19:15;10.55;;;3.50;;
62796;SDS011;48839;48.546;-4.178;2023-08-01T08:21:41;10.23;;;4.55;;
62796;SDS011;48839;48.546;-4.178;2023-08-01T08:24:07;14.80;;;4.63;;
62796;SDS011;48839;48.546;-4.178;2023-08-01T08:26:33;12.35;;;4.05;;
62796;SDS011;48839;48.546;-4.178;2023-08-01T08:29:02;8.52;;;3.47;;
62796;SDS011;48839;48.546;-4.178;2023-08-01T08:31:29;12.35;;;4.03;;
62796;SDS011;48839;48.546;-4.178;2023-08-01T08:33:55;17.17;;;4.65;;
62796;SDS011;48839;48.546;-4.178;2023-08-01T08:36:21;10.20;;;4.03;;
62796;SDS011;48839;48.546;-4.178;2023-08-01T08:38:47;12.70;;;5.15;;
62796;SDS011;48839;48.546;-4.178;2023-08-01T08:41:16;12.85;;;3.90;;
62796;SDS011;48839;48.546;-4.178;2023-08-01T08:43:45;17.15;;;4.68;;
62796;SDS011;48839;48.546;-4.178;2023-08-01T08:46:14;13.88;;;4.18;;
62796;SDS011;48839;48.546;-4.178;2023-08-01T08:48:41;11.55;;;4.63;;
62796;SDS011;48839;48.546;-4.178;2023-08-01T08:51:07;11.57;;;4.03;;
62796;SDS011;48839;48.546;-4.178;2023-08-01T08:53:33;10.23;;;4.03;;
62796;SDS011;48839;48.546;-4.178;2023-08-01T08:56:01;11.82;;;4.30;;
62796;SDS011;48839;48.546;-4.178;2023-08-01T08:58:30;8.93;;;3.85;;
62796;SDS011;48839;48.546;-4.178;2023-08-01T09:00:57;13.57;;;4.93;;
62796;SDS011;48839;48.546;-4.178;2023-08-01T09:03:24;14.02;;;4.07;;
62796;SDS011;48839;48.546;-4.178;2023-08-01T09:05:50;12.25;;;4.00;;
62796;SDS011;48839;48.546;-4.178;2023-08-01T09:08:20;12.85;;;4.30;;
62796;SDS011;48839;48.546;-4.178;2023-08-01T09:10:47;7.85;;;3.88;;
62796;SDS011;48839;48.546;-4.178;2023-08-01T09:13:13;11.45;;;3.80;;
62796;SDS011;48839;48.546;-4.178;2023-08-01T09:15:39;12.48;;;5.00;;
62796;SDS011;48839;48.546;-4.178;2023-08-01T09:18:07;12.45;;;3.92;;
62796;SDS011;48839;48.546;-4.178;2023-08-01T09:20:41;16.20;;;4.20;;
62796;SDS011;48839;48.546;-4.178;2023-08-01T09:23:08;10.73;;;3.80;;
62796;SDS011;48839;48.546;-4.178;2023-08-01T09:25:35;12.13;;;3.58;;
62796;SDS011;48839;48.546;-4.178;2023-08-01T09:28:01;7.80;;;3.30;;
62796;SDS011;48839;48.546;-4.178;2023-08-01T09:30:27;11.98;;;3.80;;
62796;SDS011;48839;48.546;-4.178;2023-08-01T09:32:56;12.90;;;4.45;;
62796;SDS011;48839;48.546;-4.178;2023-08-01T09:35:23;9.70;;;4.10;;
62796;SDS011;48839;48.546;-4.178;2023-08-01T09:37:49;8.02;;;3.60;;
62796;SDS011;48839;48.546;-4.178;2023-08-01T09:40:15;13.52;;;4.00;;
62796;SDS011;48839;48.546;-4.178;2023-08-01T09:42:42;11.68;;;3.47;;
62796;SDS011;48839;48.546;-4.178;2023-08-01T09:45:14;7.93;;;3.45;;
62796;SDS011;48839;48.546;-4.178;2023-08-01T09:47:41;9.05;;;3.00;;
62796;SDS011;48839;48.546;-4.178;2023-08-01T09:50:11;10.65;;;3.45;;
62796;SDS011;48839;48.546;-4.178;2023-08-01T09:52:38;9.57;;;3.47;;
62796;SDS011;48839;48.546;-4.178;2023-08-01T09:55:04;12.00;;;3.75;;
62796;SDS011;48839;48.546;-4.178;2023-08-01T09:57:31;8.02;;;3.15;;
62796;SDS011;48839;48.546;-4.178;2023-08-01T09:59:57;12.57;;;3.92;;
62796;SDS011;48839;48.546;-4.178;2023-08-01T10:02:24;9.30;;;3.13;;
62796;SDS011;48839;48.546;-4.178;2023-08-01T10:04:52;9.23;;;3.90;;
62796;SDS011;48839;48.546;-4.178;2023-08-01T10:07:20;10.40;;;3.55;;
62796;SDS011;48839;48.546;-4.178;2023-08-01T10:09:49;8.88;;;3.17;;
62796;SDS011;48839;48.546;-4.178;2023-08-01T10:12:15;8.07;;;3.70;;
62796;SDS011;48839;48.546;-4.178;2023-08-01T10:14:45;10.02;;;3.95;;
62796;SDS011;48839;48.546;-4.178;2023-08-01T10:17:12;15.05;;;3.22;;
62796;SDS011;48839;48.546;-4.178;2023-08-01T10:19:38;9.50;;;3.15;;
62796;SDS011;48839;48.546;-4.178;2023-08-01T10:22:05;7.25;;;3.47;;
62796;SDS011;48839;48.546;-4.178;2023-08-01T10:24:32;9.15;;;3.03;;
62796;SDS011;48839;48.546;-4.178;2023-08-01T10:27:10;9.48;;;2.97;;
62796;SDS011;48839;48.546;-4.178;2023-08-01T10:29:37;12.68;;;3.80;;
62796;SDS011;48839;48.546;-4.178;2023-08-01T10:32:03;10.02;;;4.47;;
62796;SDS011;48839;48.546;-4.178;2023-08-01T10:34:32;9.45;;;3.33;;
62796;SDS011;48839;48.546;-4.178;2023-08-01T10:36:58;9.93;;;3.33;;
62796;SDS011;48839;48.546;-4.178;2023-08-01T10:39:25;12.00;;;4.10;;
62796;SDS011;48839;48.546;-4.178;2023-08-01T10:42:01;10.30;;;3.45;;
62796;SDS011;48839;48.546;-4.178;2023-08-01T10:44:28;12.32;;;3.92;;
62796;SDS011;48839;48.546;-4.178;2023-08-01T10:47:02;11.95;;;4.10;;
62796;SDS011;48839;48.546;-4.178;2023-08-01T10:52:01;10.07;;;3.38;;
62796;SDS011;48839;48.546;-4.178;2023-08-01T10:54:27;11.82;;;3.60;;
62796;SDS011;48839;48.546;-4.178;2023-08-01T10:56:53;6.53;;;3.33;;
62796;SDS011;48839;48.546;-4.178;2023-08-01T10:59:20;8.95;;;3.30;;
62796;SDS011;48839;48.546;-4.178;2023-08-01T11:01:53;10.05;;;3.08;;
62796;SDS011;48839;48.546;-4.178;2023-08-01T11:04:23;10.43;;;2.88;;
62796;SDS011;48839;48.546;-4.178;2023-08-01T11:06:49;9.18;;;3.17;;
62796;SDS011;48839;48.546;-4.178;2023-08-01T11:09:19;11.65;;;4.20;;
62796;SDS011;48839;48.546;-4.178;2023-08-01T11:11:47;8.85;;;3.25;;
62796;SDS011;48839;48.546;-4.178;2023-08-01T11:14:14;9.82;;;3.10;;
62796;SDS011;48839;48.546;-4.178;2023-08-01T11:16:40;13.13;;;3.35;;
62796;SDS011;48839;48.546;-4.178;2023-08-01T11:19:06;6.00;;;3.50;;
62796;SDS011;48839;48.546;-4.178;2023-08-01T11:21:32;11.15;;;2.80;;
62796;SDS011;48839;48.546;-4.178;2023-08-01T11:24:05;11.50;;;3.20;;
62796;SDS011;48839;48.546;-4.178;2023-08-01T11:26:32;7.55;;;2.80;;
62796;SDS011;48839;48.546;-4.178;2023-08-01T11:29:02;9.55;;;3.60;;
62796;SDS011;48839;48.546;-4.178;2023-08-01T11:31:30;9.05;;;3.28;;
62796;SDS011;48839;48.546;-4.178;2023-08-01T11:33:57;12.93;;;3.50;;
62796;SDS011;48839;48.546;-4.178;2023-08-01T11:36:25;11.40;;;3.95;;
62796;SDS011;48839;48.546;-4.178;2023-08-01T11:38:52;11.30;;;3.13;;
62796;SDS011;48839;48.546;-4.178;2023-08-01T11:41:18;11.93;;;3.95;;
62796;SDS011;48839;48.546;-4.178;2023-08-01T11:43:44;10.63;;;4.10;;
62796;SDS011;48839;48.546;-4.178;2023-08-01T11:46:10;9.02;;;3.10;;
62796;SDS011;48839;48.546;-4.178;2023-08-01T11:48:37;10.48;;;3.78;;
62796;SDS011;48839;48.546;-4.178;2023-08-01T11:51:04;13.73;;;3.60;;
62796;SDS011;48839;48.546;-4.178;2023-08-01T11:53:30;11.57;;;2.80;;
62796;SDS011;48839;48.546;-4.178;2023-08-01T11:56:03;6.90;;;3.00;;
62796;SDS011;48839;48.546;-4.178;2023-08-01T11:58:33;10.00;;;3.25;;
62796;SDS011;48839;48.546;-4.178;2023-08-01T12:01:03;8.70;;;2.50;;
62796;SDS011;48839;48.546;-4.178;2023-08-01T12:03:29;9.02;;;3.42;;
62796;SDS011;48839;48.546;-4.178;2023-08-01T12:06:05;9.18;;;3.28;;
62796;SDS011;48839;48.546;-4.178;2023-08-01T12:08:33;10.38;;;3.15;;
62796;SDS011;48839;48.546;-4.178;2023-08-01T12:10:59;9.52;;;3.13;;
62796;SDS011;48839;48.546;-4.178;2023-08-01T12:13:25;9.38;;;3.45;;
62796;SDS011;48839;48.546;-4.178;2023-08-01T12:15:52;10.35;;;3.25;;
62796;SDS011;48839;48.546;-4.178;2023-08-01T12:18:23;10.73;;;3.28;;
62796;SDS011;48839;48.546;-4.178;2023-08-01T12:20:49;6.78;;;3.05;;
62796;SDS011;48839;48.546;-4.178;2023-08-01T12:23:15;6.32;;;2.17;;
62796;SDS011;48839;48.546;-4.178;2023-08-01T12:25:41;7.82;;;2.97;;
62796;SDS011;48839;48.546;-4.178;2023-08-01T12:28:07;13.40;;;2.88;;
62796;SDS011;48839;48.546;-4.178;2023-08-01T12:30:33;6.93;;;2.90;;
62796;SDS011;48839;48.546;-4.178;2023-08-01T12:32:59;9.73;;;3.47;;
62796;SDS011;48839;48.546;-4.178;2023-08-01T12:35:28;9.80;;;4.30;;
62796;SDS011;48839;48.546;-4.178;2023-08-01T12:37:54;12.73;;;3.92;;
62796;SDS011;48839;48.546;-4.178;2023-08-01T12:40:20;9.13;;;4.03;;
62796;SDS011;48839;48.546;-4.178;2023-08-01T12:42:46;10.90;;;3.90;;
62796;SDS011;48839;48.546;-4.178;2023-08-01T12:45:12;17.23;;;5.70;;
62796;SDS011;48839;48.546;-4.178;2023-08-01T12:47:39;12.65;;;4.22;;
62796;SDS011;48839;48.546;-4.178;2023-08-01T12:50:05;8.40;;;3.97;;
62796;SDS011;48839;48.546;-4.178;2023-08-01T12:52:31;10.65;;;3.70;;
62796;SDS011;48839;48.546;-4.178;2023-08-01T12:54:57;8.52;;;3.83;;
62796;SDS011;48839;48.546;-4.178;2023-08-01T12:57:23;10.13;;;4.18;;
62796;SDS011;48839;48.546;-4.178;2023-08-01T12:59:49;12.30;;;4.60;;
62796;SDS011;48839;48.546;-4.178;2023-08-01T13:02:15;13.13;;;4.28;;
62796;SDS011;48839;48.546;-4.178;2023-08-01T13:04:41;12.85;;;4.63;;
62796;SDS011;48839;48.546;-4.178;2023-08-01T13:07:07;14.27;;;5.85;;
62796;SDS011;48839;48.546;-4.178;2023-08-01T13:09:33;9.13;;;3.40;;
62796;SDS011;48839;48.546;-4.178;2023-08-01T13:11:59;10.70;;;3.13;;
62796;SDS011;48839;48.546;-4.178;2023-08-01T13:14:26;7.90;;;2.70;;
62796;SDS011;48839;48.546;-4.178;2023-08-01T13:16:52;7.32;;;3.47;;
62796;SDS011;48839;48.546;-4.178;2023-08-01T13:19:18;5.07;;;2.00;;
62796;SDS011;48839;48.546;-4.178;2023-08-01T13:21:44;3.50;;;1.65;;
62796;SDS011;48839;48.546;-4.178;2023-08-01T13:24:10;2.65;;;1.55;;
62796;SDS011;48839;48.546;-4.178;2023-08-01T13:26:36;4.05;;;1.90;;
62796;SDS011;48839;48.546;-4.178;2023-08-01T13:29:02;4.28;;;1.85;;
62796;SDS011;48839;48.546;-4.178;2023-08-01T13:31:28;3.15;;;1.33;;
62796;SDS011;48839;48.546;-4.178;2023-08-01T13:33:55;3.88;;;1.88;;
62796;SDS011;48839;48.546;-4.178;2023-08-01T13:36:21;6.53;;;1.80;;
62796;SDS011;48839;48.546;-4.178;2023-08-01T13:38:47;5.22;;;1.73;;
62796;SDS011;48839;48.546;-4.178;2023-08-01T13:41:13;3.78;;;2.42;;
62796;SDS011;48839;48.546;-4.178;2023-08-01T13:43:40;8.43;;;2.40;;
62796;SDS011;48839;48.546;-4.178;2023-08-01T13:46:13;4.50;;;2.22;;
62796;SDS011;48839;48.546;-4.178;2023-08-01T13:51:05;9.18;;;2.72;;
62796;SDS011;48839;48.546;-4.178;2023-08-01T13:53:31;5.72;;;2.85;;
62796;SDS011;48839;48.546;-4.178;2023-08-01T13:55:58;5.63;;;2.42;;
62796;SDS011;48839;48.546;-4.178;2023-08-01T13:58:24;11.85;;;3.33;;
62796;SDS011;48839;48.546;-4.178;2023-08-01T14:00:50;10.63;;;3.47;;
62796;SDS011;48839;48.546;-4.178;2023-08-01T14:03:16;12.07;;;3.50;;
62796;SDS011;48839;48.546;-4.178;2023-08-01T14:05:42;11.15;;;4.18;;
62796;SDS011;48839;48.546;-4.178;2023-08-01T14:08:08;6.85;;;3.28;;
62796;SDS011;48839;48.546;-4.178;2023-08-01T14:10:34;7.63;;;3.13;;
62796;SDS011;48839;48.546;-4.178;2023-08-01T14:13:00;10.02;;;3.78;;
62796;SDS011;48839;48.546;-4.178;2023-08-01T14:15:26;9.55;;;3.65;;
62796;SDS011;48839;48.546;-4.178;2023-08-01T14:17:52;5.55;;;2.95;;
62796;SDS011;48839;48.546;-4.178;2023-08-01T14:20:18;8.55;;;3.55;;
62796;SDS011;48839;48.546;-4.178;2023-08-01T14:22:44;12.45;;;4.30;;
62796;SDS011;48839;48.546;-4.178;2023-08-01T14:25:11;9.02;;;4.90;;
62796;SDS011;48839;48.546;-4.178;2023-08-01T14:27:37;12.60;;;3.83;;